createdAt,value
2022-09-10T00:00:33.851Z,13.90
2022-09-10T00:03:07.702Z,13.80
2022-09-10T00:05:46.733Z,13.80
2022-09-10T00:11:12.666Z,13.90
2022-09-10T00:13:43.831Z,14.00
2022-09-10T00:16:18.042Z,14.00
2022-09-10T00:18:49.948Z,14.00
2022-09-10T00:21:22.908Z,14.10
2022-09-10T00:23:53.532Z,14.10
2022-09-10T00:26:27.072Z,14.20
2022-09-10T00:29:00.129Z,14.20
2022-09-10T00:31:32.206Z,14.30
2022-09-10T00:34:05.487Z,14.40
2022-09-10T00:36:38.984Z,14.40
2022-09-10T00:39:15.051Z,14.50
2022-09-10T00:41:48.199Z,14.40
2022-09-10T00:44:42.644Z,14.30
2022-09-10T00:47:38.769Z,14.30
2022-09-10T00:50:22.631Z,14.20
2022-09-10T00:52:55.425Z,14.20
2022-09-10T00:55:26.972Z,14.20
2022-09-10T00:58:01.940Z,14.20
2022-09-10T01:00:33.540Z,14.20
2022-09-10T01:03:05.377Z,14.20
2022-09-10T01:05:36.453Z,14.30
2022-09-10T01:08:07.733Z,14.40
2022-09-10T01:10:49.703Z,14.50
2022-09-10T01:13:44.725Z,14.60
2022-09-10T01:16:18.201Z,14.70
2022-09-10T01:18:54.617Z,14.80
2022-09-10T01:22:03.048Z,14.90
2022-09-10T01:24:39.497Z,15.00
2022-09-10T01:27:26.321Z,15.10
2022-09-10T01:30:09.400Z,15.30
2022-09-10T01:32:50.286Z,15.40
2022-09-10T01:35:28.740Z,15.50
2022-09-10T01:38:05.037Z,15.70
2022-09-10T01:40:37.278Z,15.90
2022-09-10T01:43:12.795Z,16.10
2022-09-10T01:45:56.877Z,16.20
2022-09-10T01:48:41.621Z,16.40
2022-09-10T01:52:08.453Z,16.50
2022-09-10T01:55:11.797Z,16.50
2022-09-10T01:58:12.329Z,16.60
2022-09-10T02:00:47.270Z,16.60
2022-09-10T02:03:22.184Z,16.50
2022-09-10T02:05:55.579Z,16.40
2022-09-10T02:08:32.817Z,16.40
2022-09-10T02:11:07.920Z,16.60
2022-09-10T02:13:38.944Z,16.70
2022-09-10T02:16:16.287Z,16.90
2022-09-10T02:18:46.760Z,17.00
2022-09-10T02:21:17.412Z,17.00
2022-09-10T02:23:51.964Z,16.90
2022-09-10T02:26:22.208Z,16.70
2022-09-10T02:28:52.765Z,16.70
2022-09-10T02:31:23.019Z,16.60
2022-09-10T02:33:53.359Z,16.50
2022-09-10T02:36:27.833Z,16.50
2022-09-10T02:38:58.706Z,16.40
2022-09-10T02:41:29.640Z,16.20
2022-09-10T02:43:59.832Z,16.10
2022-09-10T02:46:30.681Z,16.00
2022-09-10T02:49:00.889Z,15.90
2022-09-10T02:51:31.008Z,15.90
2022-09-10T02:54:01.565Z,15.90
2022-09-10T02:56:32.167Z,16.00
2022-09-10T02:59:02.358Z,16.20
2022-09-10T03:01:32.749Z,16.40
2022-09-10T03:04:02.991Z,16.50
2022-09-10T03:06:33.338Z,16.70
2022-09-10T03:09:03.851Z,16.70
2022-09-10T03:11:34.661Z,16.90
2022-09-10T03:14:05.969Z,17.00
2022-09-10T03:16:36.682Z,17.10
2022-09-10T03:19:06.943Z,17.30
2022-09-10T03:21:37.154Z,17.40
2022-09-10T03:24:08.692Z,17.50
2022-09-10T03:26:39.562Z,17.60
2022-09-10T03:29:09.988Z,17.60
2022-09-10T03:31:41.231Z,17.80
2022-09-10T03:34:14.318Z,17.90
2022-09-10T03:36:44.694Z,18.00
2022-09-10T03:39:15.804Z,18.00
2022-09-10T03:41:47.075Z,17.90
2022-09-10T03:44:18.031Z,18.00
2022-09-10T03:46:50.332Z,17.90
2022-09-10T03:49:21.000Z,17.90
2022-09-10T03:51:51.607Z,17.80
2022-09-10T03:54:22.365Z,17.80
2022-09-10T03:56:52.563Z,17.70
2022-09-10T03:59:23.521Z,17.50
2022-09-10T04:01:53.773Z,17.30
2022-09-10T04:04:24.018Z,17.20
2022-09-10T04:06:56.195Z,17.10
2022-09-10T04:09:26.701Z,17.10
2022-09-10T04:11:57.159Z,17.20
2022-09-10T04:14:28.822Z,17.30
2022-09-10T04:17:02.501Z,17.40
2022-09-10T04:19:32.657Z,17.40
2022-09-10T04:22:03.150Z,17.40
2022-09-10T04:24:33.258Z,17.40
2022-09-10T04:27:04.049Z,17.50
2022-09-10T04:29:34.238Z,17.50
2022-09-10T04:32:05.649Z,17.60
2022-09-10T04:34:36.318Z,17.70
2022-09-10T04:37:07.172Z,17.80
2022-09-10T04:39:38.101Z,17.90
2022-09-10T04:42:09.183Z,18.00
2022-09-10T04:44:39.362Z,18.00
2022-09-10T04:47:09.783Z,18.00
2022-09-10T04:49:40.052Z,17.90
2022-09-10T04:52:11.067Z,17.80
2022-09-10T04:54:41.592Z,17.70
2022-09-10T04:57:11.779Z,17.60
2022-09-10T04:59:42.174Z,17.50
2022-09-10T05:02:12.412Z,17.50
2022-09-10T05:04:42.646Z,17.40
2022-09-10T05:07:13.644Z,17.40
2022-09-10T05:09:45.397Z,17.30
2022-09-10T05:12:17.928Z,17.30
2022-09-10T05:14:48.274Z,17.30
2022-09-10T05:17:22.226Z,17.30
2022-09-10T05:19:52.957Z,17.30
2022-09-10T05:22:33.699Z,17.20
2022-09-10T05:25:08.836Z,17.20
2022-09-10T05:27:39.126Z,17.20
2022-09-10T05:30:09.983Z,17.10
2022-09-10T05:32:41.770Z,17.00
2022-09-10T05:35:12.920Z,16.90
2022-09-10T05:37:43.453Z,16.80
2022-09-10T05:40:18.077Z,16.70
2022-09-10T05:42:48.985Z,16.60
2022-09-10T05:45:23.522Z,16.50
2022-09-10T05:47:54.639Z,16.40
2022-09-10T05:50:25.726Z,16.30
2022-09-10T05:52:56.002Z,16.30
2022-09-10T05:55:27.151Z,16.30
2022-09-10T05:58:00.620Z,16.30
2022-09-10T06:00:31.590Z,16.30
2022-09-10T06:03:03.184Z,16.40
2022-09-10T06:05:34.449Z,16.30
2022-09-10T06:08:08.570Z,16.30
2022-09-10T06:10:40.416Z,16.20
2022-09-10T06:13:12.984Z,16.10
2022-09-10T06:15:43.888Z,16.10
2022-09-10T06:18:15.369Z,16.10
2022-09-10T06:20:45.852Z,16.00
2022-09-10T06:23:18.728Z,16.00
2022-09-10T06:25:50.075Z,16.00
2022-09-10T06:28:20.257Z,15.90
2022-09-10T06:30:50.850Z,15.80
2022-09-10T06:33:21.250Z,15.70
2022-09-10T06:36:03.279Z,15.60
2022-09-10T06:38:35.383Z,15.40
2022-09-10T06:41:14.187Z,15.30
2022-09-10T06:43:45.563Z,15.10
2022-09-10T06:49:14.276Z,15.00
2022-09-10T06:51:45.120Z,14.90
2022-09-10T06:54:16.807Z,14.80
2022-09-10T06:56:50.970Z,14.80
2022-09-10T06:59:21.590Z,14.70
2022-09-10T07:01:51.816Z,14.70
2022-09-10T07:04:22.126Z,14.60
2022-09-10T07:06:53.198Z,14.60
2022-09-10T07:09:23.365Z,14.60
2022-09-10T07:11:54.020Z,14.60
2022-09-10T07:14:24.224Z,14.60
2022-09-10T07:16:55.114Z,14.50
2022-09-10T07:19:25.422Z,14.40
2022-09-10T07:21:55.632Z,14.40
2022-09-10T07:24:25.974Z,14.40
2022-09-10T07:26:56.135Z,14.30
2022-09-10T07:29:26.389Z,14.30
2022-09-10T07:31:56.599Z,14.30
2022-09-10T07:34:27.002Z,14.20
2022-09-10T07:36:58.392Z,14.20
2022-09-10T07:39:28.620Z,14.10
2022-09-10T07:41:58.895Z,14.10
2022-09-10T07:44:29.523Z,14.10
2022-09-10T07:47:00.017Z,14.10
2022-09-10T07:49:30.238Z,14.10
2022-09-10T07:52:01.358Z,14.00
2022-09-10T07:54:31.622Z,14.00
2022-09-10T07:57:01.797Z,14.00
2022-09-10T07:59:35.359Z,14.00
2022-09-10T08:02:06.367Z,14.00
2022-09-10T08:04:42.180Z,13.90
2022-09-10T08:07:12.648Z,13.90
2022-09-10T08:09:42.891Z,13.90
2022-09-10T08:12:13.087Z,14.00
2022-09-10T08:14:44.072Z,14.00
2022-09-10T08:17:14.723Z,14.00
2022-09-10T08:19:46.545Z,14.00
2022-09-10T08:22:17.422Z,14.00
2022-09-10T08:24:50.454Z,14.00
2022-09-10T08:27:24.211Z,14.00
2022-09-10T08:29:57.486Z,13.90
2022-09-10T08:32:31.660Z,13.90
2022-09-10T08:35:01.873Z,13.90
2022-09-10T08:37:32.886Z,13.90
2022-09-10T08:40:04.980Z,13.90
2022-09-10T08:43:04.845Z,13.80
2022-09-10T08:45:36.263Z,13.80
2022-09-10T08:48:15.541Z,13.80
2022-09-10T08:50:59.195Z,13.80
2022-09-10T08:54:00.204Z,13.70
2022-09-10T08:56:32.937Z,13.70
2022-09-10T08:59:07.166Z,13.70
2022-09-10T09:01:58.387Z,13.70
2022-09-10T09:04:52.738Z,13.60
2022-09-10T09:07:24.509Z,13.50
2022-09-10T09:09:55.668Z,13.40
2022-09-10T09:12:55.528Z,13.30
2022-09-10T09:15:35.169Z,13.30
2022-09-10T09:18:35.911Z,13.30
2022-09-10T09:21:18.927Z,13.10
2022-09-10T09:24:12.636Z,13.10
2022-09-10T09:26:47.685Z,13.00
2022-09-10T09:29:27.570Z,13.00
2022-09-10T09:32:02.232Z,13.00
2022-09-10T09:34:46.214Z,13.00
2022-09-10T09:37:23.310Z,12.90
2022-09-10T09:40:09.835Z,12.90
2022-09-10T09:42:52.724Z,12.90
2022-09-10T09:45:36.851Z,12.90
2022-09-10T09:48:09.394Z,12.80
2022-09-10T09:50:43.734Z,12.80
2022-09-10T09:53:27.343Z,12.80
2022-09-10T09:56:09.055Z,12.80
2022-09-10T09:58:42.153Z,12.70
2022-09-10T10:01:19.348Z,12.70
2022-09-10T10:03:54.228Z,12.70
2022-09-10T10:06:32.006Z,12.70
2022-09-10T10:09:08.824Z,12.60
2022-09-10T10:11:43.812Z,12.70
2022-09-10T10:14:39.828Z,12.70
2022-09-10T10:17:34.359Z,12.60
2022-09-10T10:20:20.028Z,12.60
2022-09-10T10:22:53.270Z,12.60
2022-09-10T10:25:54.277Z,12.60
2022-09-10T10:28:29.622Z,12.60
2022-09-10T10:31:03.138Z,12.60
2022-09-10T10:33:37.624Z,12.60
2022-09-10T10:36:29.461Z,12.60
2022-09-10T10:39:31.738Z,12.60
2022-09-10T10:42:15.965Z,12.50
2022-09-10T10:45:01.392Z,12.50
2022-09-10T10:47:57.867Z,12.40
2022-09-10T10:50:44.382Z,12.40
2022-09-10T10:53:24.282Z,12.50
2022-09-10T10:56:30.595Z,12.40
2022-09-10T10:59:19.061Z,12.40
2022-09-10T11:02:18.685Z,12.30
2022-09-10T11:05:00.134Z,12.30
2022-09-10T11:07:49.031Z,12.30
2022-09-10T11:10:41.475Z,12.30
2022-09-10T11:13:12.323Z,12.30
2022-09-10T11:16:18.395Z,12.20
2022-09-10T11:19:06.692Z,12.20
2022-09-10T11:21:47.683Z,12.20
2022-09-10T11:24:28.685Z,12.20
2022-09-10T11:27:24.306Z,12.10
2022-09-10T11:30:15.369Z,12.10
2022-09-10T11:32:53.991Z,12.10
2022-09-10T11:35:43.056Z,12.10
2022-09-10T11:38:29.402Z,12.10
2022-09-10T11:41:25.170Z,12.00
2022-09-10T11:44:04.727Z,12.00
2022-09-10T11:46:40.713Z,12.00
2022-09-10T11:49:18.296Z,12.00
2022-09-10T11:51:49.749Z,11.90
2022-09-10T11:54:27.109Z,11.90
2022-09-10T11:57:15.619Z,11.90
2022-09-10T12:00:17.478Z,11.90
2022-09-10T12:03:30.397Z,11.80
2022-09-10T12:06:19.065Z,11.70
2022-09-10T12:09:21.457Z,11.70
2022-09-10T12:12:08.825Z,11.70
2022-09-10T12:14:43.148Z,11.50
2022-09-10T12:17:21.531Z,11.50
2022-09-10T12:19:57.206Z,11.50
2022-09-10T12:22:43.487Z,11.40
2022-09-10T12:25:23.602Z,11.30
2022-09-10T12:28:05.770Z,11.30
2022-09-10T12:30:36.537Z,11.20
2022-09-10T12:33:15.882Z,11.10
2022-09-10T12:35:49.290Z,11.10
2022-09-10T12:38:47.398Z,11.00
2022-09-10T12:41:23.141Z,11.00
2022-09-10T12:44:02.841Z,10.90
2022-09-10T12:46:35.105Z,10.90
2022-09-10T12:49:05.293Z,10.90
2022-09-10T12:51:55.534Z,10.90
2022-09-10T12:54:35.221Z,10.90
2022-09-10T12:57:24.425Z,10.90
2022-09-10T13:00:00.732Z,10.90
2022-09-10T13:02:36.389Z,10.90
2022-09-10T13:05:22.551Z,10.90
2022-09-10T13:08:06.536Z,10.90
2022-09-10T13:10:37.431Z,10.80
2022-09-10T13:13:26.238Z,10.70
2022-09-10T13:15:57.225Z,10.70
2022-09-10T13:18:33.881Z,10.60
2022-09-10T13:21:26.427Z,10.50
2022-09-10T13:23:58.279Z,10.50
2022-09-10T13:26:39.964Z,10.40
2022-09-10T13:29:30.441Z,10.40
2022-09-10T13:32:09.806Z,10.30
2022-09-10T13:35:08.152Z,10.20
2022-09-10T13:38:09.334Z,10.20
2022-09-10T13:40:58.880Z,10.20
2022-09-10T13:43:51.052Z,10.20
2022-09-10T13:46:35.032Z,10.20
2022-09-10T13:49:37.573Z,10.20
2022-09-10T13:52:14.143Z,10.20
2022-09-10T13:54:57.050Z,10.20
2022-09-10T13:57:43.147Z,10.20
2022-09-10T14:00:27.600Z,10.20
2022-09-10T14:03:02.846Z,10.10
2022-09-10T14:05:45.361Z,10.00
2022-09-10T14:08:44.374Z,10.00
2022-09-10T14:11:23.472Z,9.90
2022-09-10T14:14:18.322Z,9.90
2022-09-10T14:16:58.254Z,9.80
2022-09-10T14:19:39.196Z,9.70
2022-09-10T14:22:10.184Z,9.60
2022-09-10T14:24:46.280Z,9.60
2022-09-10T14:27:27.545Z,9.50
2022-09-10T14:30:00.319Z,9.50
2022-09-10T14:32:39.357Z,9.50
2022-09-10T14:35:38.062Z,9.50
2022-09-10T14:38:48.284Z,9.40
2022-09-10T14:41:27.970Z,9.40
2022-09-10T14:44:26.891Z,9.30
2022-09-10T14:47:12.773Z,9.30
2022-09-10T14:49:46.633Z,9.30
2022-09-10T14:52:17.763Z,9.30
2022-09-10T14:54:49.777Z,9.30
2022-09-10T14:57:20.611Z,9.30
2022-09-10T14:59:53.125Z,9.30
2022-09-10T15:02:29.642Z,9.30
2022-09-10T15:04:59.856Z,9.30
2022-09-10T15:07:30.909Z,9.30
2022-09-10T15:10:02.999Z,9.30
2022-09-10T15:12:35.579Z,9.30
2022-09-10T15:15:07.480Z,9.30
2022-09-10T15:17:38.014Z,9.40
2022-09-10T15:20:08.611Z,9.40
2022-09-10T15:22:38.812Z,9.40
2022-09-10T15:25:11.029Z,9.40
2022-09-10T15:27:43.848Z,9.50
2022-09-10T15:30:14.072Z,9.50
2022-09-10T15:32:44.245Z,9.50
2022-09-10T15:35:14.933Z,9.50
2022-09-10T15:37:45.102Z,9.50
2022-09-10T15:40:15.352Z,9.50
2022-09-10T15:42:45.914Z,9.50
2022-09-10T15:45:16.195Z,9.50
2022-09-10T15:47:46.836Z,9.40
2022-09-10T15:50:17.840Z,9.40
2022-09-10T15:52:49.273Z,9.40
2022-09-10T15:55:21.166Z,9.40
2022-09-10T15:57:54.908Z,9.40
2022-09-10T16:00:25.109Z,9.40
2022-09-10T16:02:56.136Z,9.40
2022-09-10T16:05:26.733Z,9.40
2022-09-10T16:07:56.879Z,9.30
2022-09-10T16:10:28.035Z,9.30
2022-09-10T16:12:58.631Z,9.30
2022-09-10T16:15:28.777Z,9.20
2022-09-10T16:17:59.776Z,9.20
2022-09-10T16:20:29.946Z,9.20
2022-09-10T16:23:01.180Z,9.10
2022-09-10T16:25:33.145Z,9.10
2022-09-10T16:28:03.885Z,9.20
2022-09-10T16:30:34.086Z,9.10
2022-09-10T16:33:05.330Z,9.10
2022-09-10T16:35:37.864Z,9.10
2022-09-10T16:38:08.326Z,9.10
2022-09-10T16:40:38.685Z,9.00
2022-09-10T16:43:09.338Z,9.00
2022-09-10T16:45:40.039Z,9.00
2022-09-10T16:48:11.425Z,9.00
2022-09-10T16:50:41.864Z,9.00
2022-09-10T16:53:12.241Z,8.90
2022-09-10T16:55:43.294Z,8.90
2022-09-10T16:58:14.195Z,8.80
2022-09-10T17:00:46.207Z,8.80
2022-09-10T17:03:16.973Z,8.60
2022-09-10T17:05:50.440Z,8.60
2022-09-10T17:08:34.008Z,8.40
2022-09-10T17:11:04.239Z,8.40
2022-09-10T17:13:34.891Z,8.20
2022-09-10T17:16:24.516Z,8.20
2022-09-10T17:19:22.904Z,8.20
2022-09-10T17:21:57.258Z,8.10
2022-09-10T17:24:29.493Z,8.10
2022-09-10T17:26:59.699Z,8.20
2022-09-10T17:29:29.923Z,8.20
2022-09-10T17:32:00.643Z,8.20
2022-09-10T17:34:30.797Z,8.20
2022-09-10T17:37:01.341Z,8.30
2022-09-10T17:39:31.601Z,8.30
2022-09-10T17:42:02.489Z,8.40
2022-09-10T17:44:32.674Z,8.40
2022-09-10T17:47:02.840Z,8.40
2022-09-10T17:49:33.377Z,8.40
2022-09-10T17:52:05.420Z,8.40
2022-09-10T17:54:35.609Z,8.40
2022-09-10T17:57:05.840Z,8.30
2022-09-10T17:59:36.853Z,8.20
2022-09-10T18:02:08.118Z,8.10
2022-09-10T18:04:38.777Z,8.10
2022-09-10T18:07:09.240Z,8.00
2022-09-10T18:09:39.945Z,8.00
2022-09-10T18:12:10.303Z,8.00
2022-09-10T18:14:40.493Z,8.00
2022-09-10T18:17:10.893Z,8.00
2022-09-10T18:19:41.171Z,8.10
2022-09-10T18:22:11.440Z,8.10
2022-09-10T18:24:42.015Z,8.10
2022-09-10T18:27:12.193Z,8.10
2022-09-10T18:29:44.658Z,8.10
2022-09-10T18:32:17.119Z,8.00
2022-09-10T18:34:47.339Z,7.90
2022-09-10T18:37:17.495Z,7.90
2022-09-10T18:39:47.633Z,7.80
2022-09-10T18:42:18.090Z,7.70
2022-09-10T18:44:48.249Z,7.60
2022-09-10T18:47:41.364Z,7.50
2022-09-10T18:50:09.061Z,7.40
2022-09-10T18:52:39.829Z,7.20
2022-09-10T18:55:11.143Z,7.10
2022-09-10T18:57:41.304Z,7.10
2022-09-10T19:00:12.390Z,7.00
2022-09-10T19:02:43.023Z,6.90
2022-09-10T19:05:13.214Z,6.90
2022-09-10T19:07:43.354Z,6.80
2022-09-10T19:10:13.558Z,6.70
2022-09-10T19:12:43.729Z,6.70
2022-09-10T19:15:14.095Z,6.70
2022-09-10T19:17:44.235Z,6.70
2022-09-10T19:20:14.370Z,6.60
2022-09-10T19:22:45.034Z,6.60
2022-09-10T19:25:15.670Z,6.50
2022-09-10T19:27:46.861Z,6.50
2022-09-10T19:30:17.084Z,6.40
2022-09-10T19:32:47.662Z,6.40
2022-09-10T19:35:17.899Z,6.30
2022-09-10T19:37:49.981Z,6.20
2022-09-10T19:40:20.158Z,6.20
2022-09-10T19:42:50.310Z,6.10
2022-09-10T19:45:20.479Z,6.00
2022-09-10T19:47:52.527Z,6.00
2022-09-10T19:59:53.115Z,5.80
2022-09-10T20:02:24.025Z,5.80
2022-09-10T20:04:54.448Z,5.80
2022-09-10T20:07:24.891Z,5.80
2022-09-10T20:09:57.326Z,5.90
2022-09-10T20:12:27.877Z,5.90
2022-09-10T20:14:58.526Z,5.90
2022-09-10T20:50:08.219Z,5.70
2022-09-10T20:52:39.374Z,5.80
2022-09-10T20:55:11.579Z,5.80
2022-09-10T20:57:41.837Z,5.90
2022-09-10T21:00:13.178Z,6.00
2022-09-10T21:02:43.768Z,6.10
2022-09-10T21:05:15.457Z,6.20
2022-09-10T21:07:45.653Z,6.30
2022-09-10T21:10:15.921Z,6.50
2022-09-10T21:12:46.178Z,6.50
2022-09-10T21:15:16.458Z,6.60
2022-09-10T21:17:47.259Z,6.70
2022-09-10T21:20:17.751Z,6.80
2022-09-10T21:22:47.920Z,6.80
2022-09-10T21:25:18.262Z,6.90
2022-09-10T21:27:48.892Z,7.10
2022-09-10T21:30:19.494Z,7.20
2022-09-10T21:32:49.640Z,7.30
2022-09-10T21:35:20.601Z,7.40
2022-09-10T21:37:50.766Z,7.60
2022-09-10T21:40:20.948Z,7.70
2022-09-10T21:42:51.490Z,7.80
2022-09-10T21:45:26.051Z,7.90
2022-09-10T21:47:56.416Z,8.00
2022-09-10T21:50:26.764Z,8.00
2022-09-10T21:52:56.953Z,8.10
2022-09-10T21:55:27.169Z,8.20
2022-09-10T21:57:58.070Z,8.20
2022-09-10T22:00:29.683Z,8.30
2022-09-10T22:03:00.033Z,8.40
2022-09-10T22:05:30.232Z,8.40
2022-09-10T22:08:00.871Z,8.50
2022-09-10T22:10:35.378Z,8.60
2022-09-10T22:13:06.231Z,8.60
2022-09-10T22:15:42.255Z,8.70
2022-09-10T22:18:13.097Z,8.80
2022-09-10T22:20:43.213Z,8.80
2022-09-10T22:23:16.490Z,8.90
2022-09-10T22:25:46.660Z,9.00
2022-09-10T22:28:16.926Z,9.10
2022-09-10T22:30:47.479Z,9.20
2022-09-10T22:33:18.068Z,9.30
2022-09-10T22:35:48.664Z,9.40
2022-09-10T22:38:27.987Z,9.40
2022-09-10T22:40:58.926Z,9.50
2022-09-10T22:43:29.166Z,9.60
2022-09-10T22:46:02.404Z,9.60
2022-09-10T22:48:33.142Z,9.70
2022-09-10T22:51:03.946Z,9.90
2022-09-10T22:53:34.945Z,10.00
2022-09-10T22:56:05.639Z,10.10
2022-09-10T22:58:37.794Z,10.10
2022-09-10T23:01:13.670Z,10.30
2022-09-10T23:03:45.667Z,10.40
2022-09-10T23:06:18.141Z,10.50
2022-09-10T23:08:51.889Z,10.60
2022-09-10T23:11:27.955Z,10.80
2022-09-10T23:14:00.911Z,10.90
2022-09-10T23:16:42.541Z,10.90
2022-09-10T23:19:18.385Z,11.00
2022-09-10T23:21:52.046Z,11.10
2022-09-10T23:24:25.943Z,11.20
2022-09-10T23:26:58.926Z,11.30
2022-09-10T23:29:30.823Z,11.40
2022-09-10T23:32:01.429Z,11.50
2022-09-10T23:34:31.870Z,11.60
2022-09-10T23:37:02.002Z,11.70
2022-09-10T23:39:36.534Z,11.80
2022-09-10T23:42:08.375Z,11.90
2022-09-10T23:44:39.978Z,12.00
2022-09-10T23:47:12.394Z,12.20
2022-09-10T23:49:42.710Z,12.30
2022-09-10T23:52:13.267Z,12.40
2022-09-10T23:54:43.991Z,12.50
2022-09-10T23:57:14.597Z,12.60
2022-09-10T23:59:44.826Z,12.70
